Time;durP1;ratioP1;P1;durP2;ratioP2;P2;SDS_P1;SDS_P2;PMS_P1;PMS_P2;Temp;Humidity;BMP_temperature;BMP_pressure;BME280_temperature;BME280_humidity;BME280_pressure;Samples;Min_cycle;Max_cycle;Signal;HPM_P1;HPM_P2
2022/01/05 00:00:55;;;;;;;;;5.75;2.75;;;;;;;;5181485;27;9138;-76
2022/01/05 00:03:20;;;;;;;;;5.00;3.00;;;;;;;;5182661;27;12105;-76
2022/01/05 00:05:45;;;;;;;;;3.50;3.00;;;;;;;;5182196;27;11397;-76
2022/01/05 00:08:12;;;;;;;;;4.50;4.50;;;;;;;;5182137;27;8944;-75
2022/01/05 00:10:38;;;;;;;;;2.75;2.75;;;;;;;;5181735;27;12810;-75
2022/01/05 00:13:03;;;;;;;;;2.00;2.00;;;;;;;;5181289;27;11368;-75
2022/01/05 00:15:28;;;;;;;;;5.00;3.00;;;;;;;;5185228;27;8871;-75
2022/01/05 00:17:53;;;;;;;;;1.00;1.00;;;;;;;;5184960;27;8848;-74
2022/01/05 00:20:19;;;;;;;;;2.00;2.00;;;;;;;;5185129;27;8808;-73
2022/01/05 00:22:44;;;;;;;;;6.00;4.00;;;;;;;;5184983;27;8934;-76
2022/01/05 00:25:09;;;;;;;;;3.50;3.50;;;;;;;;5184733;27;9494;-75
2022/01/05 00:27:35;;;;;;;;;3.00;2.25;;;;;;;;5185454;27;11354;-75
2022/01/05 00:30:00;;;;;;;;;2.00;2.00;;;;;;;;5185585;27;10530;-75
2022/01/05 00:32:25;;;;;;;;;2.00;2.00;;;;;;;;5166276;27;11633;-76
2022/01/05 00:34:52;;;;;;;;;3.00;3.00;;;;;;;;5185425;27;8788;-76
2022/01/05 00:37:18;;;;;;;;;2.50;2.50;;;;;;;;5184917;27;9531;-77
2022/01/05 00:39:44;;;;;;;;;4.50;2.75;;;;;;;;5184169;27;12192;-75
2022/01/05 00:42:09;;;;;;;;;1.00;1.00;;;;;;;;5184418;27;11635;-74
2022/01/05 00:44:34;;;;;;;;;2.00;2.00;;;;;;;;5184900;27;11966;-75
2022/01/05 00:46:59;;;;;;;;;2.00;2.00;;;;;;;;5185220;27;8791;-75
2022/01/05 00:49:25;;;;;;;;;5.50;2.50;;;;;;;;5185451;27;8779;-77
2022/01/05 00:51:50;;;;;;;;;2.00;2.00;;;;;;;;5165659;27;11678;-76
2022/01/05 00:54:15;;;;;;;;;3.50;2.50;;;;;;;;5185024;27;12294;-76
2022/01/05 00:56:41;;;;;;;;;2.00;2.00;;;;;;;;5184563;27;11352;-73
2022/01/05 00:59:06;;;;;;;;;2.50;1.00;;;;;;;;5165509;27;12552;-74
2022/01/05 01:01:31;;;;;;;;;3.00;2.00;;;;;;;;5184693;27;9619;-74
2022/01/05 01:03:57;;;;;;;;;1.50;1.50;;;;;;;;5184407;27;10539;-77
2022/01/05 01:06:22;;;;;;;;;2.00;2.00;;;;;;;;5184462;27;11261;-77
2022/01/05 01:08:47;;;;;;;;;5.00;2.00;;;;;;;;5165203;27;13179;-74
2022/01/05 01:11:12;;;;;;;;;4.00;2.00;;;;;;;;5184667;27;8784;-74
2022/01/05 01:13:38;;;;;;;;;6.50;2.50;;;;;;;;5184094;27;8946;-74
2022/01/05 01:16:03;;;;;;;;;2.00;2.00;;;;;;;;5183962;27;11294;-75
2022/01/05 01:18:29;;;;;;;;;5.50;2.00;;;;;;;;5165356;27;12838;-76
2022/01/05 01:20:54;;;;;;;;;2.75;1.50;;;;;;;;5184707;27;9351;-76
2022/01/05 01:23:22;;;;;;;;;3.00;2.25;;;;;;;;5184551;27;11281;-76
2022/01/05 01:25:48;;;;;;;;;4.50;1.00;;;;;;;;5183750;27;11626;-76
2022/01/05 01:28:13;;;;;;;;;2.75;2.00;;;;;;;;5183766;27;12554;-74
2022/01/05 01:30:39;;;;;;;;;5.00;2.00;;;;;;;;5184407;27;11447;-78
2022/01/05 01:33:04;;;;;;;;;2.50;2.50;;;;;;;;5184857;27;9855;-73
2022/01/05 01:35:30;;;;;;;;;2.00;2.00;;;;;;;;5184424;27;11413;-74
2022/01/05 01:37:55;;;;;;;;;6.25;5.00;;;;;;;;5183770;27;8873;-76
2022/01/05 01:40:20;;;;;;;;;2.50;2.00;;;;;;;;5184143;27;10778;-76
2022/01/05 01:42:46;;;;;;;;;2.50;1.25;;;;;;;;5184391;27;10529;-76
2022/01/05 01:45:11;;;;;;;;;4.00;2.50;;;;;;;;5183813;27;8849;-76
2022/01/05 01:47:37;;;;;;;;;3.00;2.00;;;;;;;;5164948;27;13325;-76
2022/01/05 01:50:02;;;;;;;;;3.00;3.00;;;;;;;;5183661;27;11663;-75
2022/01/05 01:52:28;;;;;;;;;1.25;1.25;;;;;;;;5164651;27;8808;-75
2022/01/05 01:54:53;;;;;;;;;2.00;2.00;;;;;;;;5184257;27;11336;-76
2022/01/05 01:57:19;;;;;;;;;1.50;1.50;;;;;;;;5184126;27;12069;-76
2022/01/05 01:59:45;;;;;;;;;2.25;2.00;;;;;;;;5183864;27;11361;-76
2022/01/05 02:02:10;;;;;;;;;2.00;2.00;;;;;;;;5183435;27;12431;-76
2022/01/05 02:04:36;;;;;;;;;3.00;2.00;;;;;;;;5183971;27;8798;-76
2022/01/05 02:07:03;;;;;;;;;1.75;1.75;;;;;;;;5183220;27;8788;-75
2022/01/05 02:09:28;;;;;;;;;5.25;2.00;;;;;;;;5183501;27;12529;-75
2022/01/05 02:11:53;;;;;;;;;2.00;1.00;;;;;;;;5183949;27;11456;-76
2022/01/05 02:14:19;;;;;;;;;5.00;2.00;;;;;;;;5183630;27;10945;-76
2022/01/05 02:16:45;;;;;;;;;1.50;1.50;;;;;;;;5183724;27;9567;-75
2022/01/05 02:19:11;;;;;;;;;1.00;1.00;;;;;;;;5183456;27;11488;-77
2022/01/05 02:21:38;;;;;;;;;2.00;1.00;;;;;;;;5183169;27;11402;-76
2022/01/05 02:24:04;;;;;;;;;1.25;1.25;;;;;;;;5183759;27;11435;-74
2022/01/05 02:26:29;;;;;;;;;2.25;2.00;;;;;;;;5183090;27;11420;-76
2022/01/05 02:28:55;;;;;;;;;1.75;1.00;;;;;;;;5183303;27;11525;-74
2022/01/05 02:31:21;;;;;;;;;5.75;3.00;;;;;;;;5163899;27;10213;-74
2022/01/05 02:33:46;;;;;;;;;2.75;1.50;;;;;;;;5182720;27;8819;-75
2022/01/05 02:36:16;;;;;;;;;3.00;2.25;;;;;;;;5182087;27;11519;-75
2022/01/05 02:38:41;;;;;;;;;4.00;2.25;;;;;;;;5182039;27;11730;-75
2022/01/05 02:41:08;;;;;;;;;2.00;2.00;;;;;;;;5182659;27;12197;-76
2022/01/05 02:43:37;;;;;;;;;2.00;2.00;;;;;;;;5163790;27;11759;-76
2022/01/05 02:46:03;;;;;;;;;5.75;2.00;;;;;;;;5183599;27;11489;-76
2022/01/05 02:48:28;;;;;;;;;2.00;2.00;;;;;;;;5183418;27;11408;-75
2022/01/05 02:50:57;;;;;;;;;2.25;2.25;;;;;;;;5182600;27;9018;-75
2022/01/05 02:53:22;;;;;;;;;3.50;2.25;;;;;;;;5183620;27;8768;-74
2022/01/05 02:55:47;;;;;;;;;1.75;1.00;;;;;;;;5183178;27;11491;-74
2022/01/05 02:58:13;;;;;;;;;2.00;2.00;;;;;;;;5183045;27;12551;-75
2022/01/05 03:00:38;;;;;;;;;2.25;2.00;;;;;;;;5182767;27;10469;-77
2022/01/05 03:03:03;;;;;;;;;1.00;1.00;;;;;;;;5183504;27;8822;-75
2022/01/05 03:05:28;;;;;;;;;1.00;1.00;;;;;;;;5182777;27;10241;-77
2022/01/05 03:07:54;;;;;;;;;2.00;2.00;;;;;;;;5182382;27;8858;-74
2022/01/05 03:10:19;;;;;;;;;1.50;1.00;;;;;;;;5182414;27;9603;-76
2022/01/05 03:12:45;;;;;;;;;2.00;2.00;;;;;;;;5182144;27;10948;-76
2022/01/05 03:15:10;;;;;;;;;1.75;1.00;;;;;;;;5182283;27;10321;-76
2022/01/05 03:17:36;;;;;;;;;6.00;2.00;;;;;;;;5182206;27;10241;-75
2022/01/05 03:20:01;;;;;;;;;2.00;1.00;;;;;;;;5181496;27;10700;-75
2022/01/05 03:22:26;;;;;;;;;5.25;2.00;;;;;;;;5163293;27;10428;-75
2022/01/05 03:24:52;;;;;;;;;2.00;2.00;;;;;;;;5182664;27;10253;-74
2022/01/05 03:27:17;;;;;;;;;4.00;2.00;;;;;;;;5182036;27;8839;-75
2022/01/05 03:29:42;;;;;;;;;1.50;1.25;;;;;;;;5182572;27;8796;-75
2022/01/05 03:32:08;;;;;;;;;1.75;1.75;;;;;;;;5182432;27;11280;-74
2022/01/05 03:34:35;;;;;;;;;1.50;0.00;;;;;;;;5182912;27;8810;-75
2022/01/05 03:37:00;;;;;;;;;2.00;1.00;;;;;;;;5162923;27;12594;-74
2022/01/05 03:39:26;;;;;;;;;1.00;1.00;;;;;;;;5181804;27;11438;-74
2022/01/05 03:41:52;;;;;;;;;2.00;2.00;;;;;;;;5181995;27;8792;-76
2022/01/05 03:44:17;;;;;;;;;2.25;2.25;;;;;;;;5181954;27;9001;-75
2022/01/05 03:46:42;;;;;;;;;1.00;1.00;;;;;;;;5181741;27;8760;-74
2022/01/05 03:49:07;;;;;;;;;3.50;1.00;;;;;;;;5182436;27;11517;-75
2022/01/05 03:51:33;;;;;;;;;2.00;1.50;;;;;;;;5167103;27;11800;-75
2022/01/05 03:53:58;;;;;;;;;5.75;3.00;;;;;;;;5185727;27;11511;-75
2022/01/05 03:56:23;;;;;;;;;3.00;2.00;;;;;;;;5166973;27;14866;-75
2022/01/05 03:58:49;;;;;;;;;3.50;2.00;;;;;;;;5185763;27;10854;-75
2022/01/05 04:01:14;;;;;;;;;1.00;1.00;;;;;;;;5185364;27;8800;-76
2022/01/05 04:03:39;;;;;;;;;3.00;2.50;;;;;;;;5185085;27;10493;-75
2022/01/05 04:06:06;;;;;;;;;1.00;1.00;;;;;;;;5185579;27;11463;-75
2022/01/05 04:08:31;;;;;;;;;2.00;1.00;;;;;;;;5166212;27;11941;-75
2022/01/05 04:10:56;;;;;;;;;3.00;1.50;;;;;;;;5185103;27;11439;-75
2022/01/05 04:13:21;;;;;;;;;2.25;1.00;;;;;;;;5185345;27;11287;-75
2022/01/05 04:15:47;;;;;;;;;1.50;1.50;;;;;;;;5185481;27;11680;-75
2022/01/05 04:18:12;;;;;;;;;2.50;2.00;;;;;;;;5184666;27;11915;-75
2022/01/05 04:20:37;;;;;;;;;1.00;1.00;;;;;;;;5185828;27;11313;-74
2022/01/05 04:23:03;;;;;;;;;2.00;1.25;;;;;;;;5185920;27;10394;-74
2022/01/05 04:25:28;;;;;;;;;1.00;1.00;;;;;;;;5185457;27;11291;-75
2022/01/05 04:27:53;;;;;;;;;1.25;1.25;;;;;;;;5166459;27;11299;-75
2022/01/05 04:30:19;;;;;;;;;3.00;2.00;;;;;;;;5185103;27;8831;-76
2022/01/05 04:32:44;;;;;;;;;4.00;2.00;;;;;;;;5184865;27;11359;-75
2022/01/05 04:35:13;;;;;;;;;3.00;3.00;;;;;;;;5165909;27;8776;-76
2022/01/05 04:37:38;;;;;;;;;2.00;2.00;;;;;;;;5184499;27;8800;-74
2022/01/05 04:40:04;;;;;;;;;3.00;1.75;;;;;;;;5185064;27;11424;-76
2022/01/05 04:42:29;;;;;;;;;1.00;1.00;;;;;;;;5184571;27;12556;-77
2022/01/05 04:44:55;;;;;;;;;5.00;2.50;;;;;;;;5165834;27;13211;-76
2022/01/05 04:47:20;;;;;;;;;2.00;2.00;;;;;;;;5184690;27;11361;-76
2022/01/05 04:49:45;;;;;;;;;3.00;3.00;;;;;;;;5184445;27;11304;-74
2022/01/05 04:52:11;;;;;;;;;2.00;1.75;;;;;;;;5184447;27;8784;-76
2022/01/05 04:54:36;;;;;;;;;5.50;1.00;;;;;;;;5184382;27;11276;-76
2022/01/05 04:57:02;;;;;;;;;1.50;1.25;;;;;;;;5184000;27;11625;-76
2022/01/05 04:59:27;;;;;;;;;0.25;0.25;;;;;;;;5184117;27;11325;-76
2022/01/05 05:01:52;;;;;;;;;3.00;1.75;;;;;;;;5184548;27;10546;-76
2022/01/05 05:04:17;;;;;;;;;2.00;2.00;;;;;;;;5184781;27;11390;-76
2022/01/05 05:06:43;;;;;;;;;2.75;2.75;;;;;;;;5184853;27;11329;-77
2022/01/05 05:09:08;;;;;;;;;4.25;3.25;;;;;;;;5184233;27;8804;-76
2022/01/05 05:11:33;;;;;;;;;3.00;3.00;;;;;;;;5184755;27;10447;-76
2022/01/05 05:13:59;;;;;;;;;4.00;4.00;;;;;;;;5165568;27;13537;-76
2022/01/05 05:16:24;;;;;;;;;3.75;3.75;;;;;;;;5165443;27;9677;-76
2022/01/05 05:18:49;;;;;;;;;3.25;3.25;;;;;;;;5184212;27;11298;-77
2022/01/05 05:21:15;;;;;;;;;2.00;2.00;;;;;;;;5184787;27;8775;-77
2022/01/05 05:23:40;;;;;;;;;5.50;5.00;;;;;;;;5184549;27;11305;-74
2022/01/05 05:26:06;;;;;;;;;4.00;3.75;;;;;;;;5184015;27;10404;-74
2022/01/05 05:28:31;;;;;;;;;4.25;3.25;;;;;;;;5164267;27;11539;-72
2022/01/05 05:30:56;;;;;;;;;5.00;5.00;;;;;;;;5184232;27;8926;-77
2022/01/05 05:33:21;;;;;;;;;7.00;5.00;;;;;;;;5165503;27;13842;-73
2022/01/05 05:35:47;;;;;;;;;9.00;4.50;;;;;;;;5184949;27;8788;-75
2022/01/05 05:38:14;;;;;;;;;4.50;4.00;;;;;;;;5184074;27;11307;-72
2022/01/05 05:40:39;;;;;;;;;4.25;2.50;;;;;;;;5174752;27;11670;-73
2022/01/05 05:43:05;;;;;;;;;5.75;3.00;;;;;;;;5141626;27;11479;-75
2022/01/05 05:45:30;;;;;;;;;5.00;4.00;;;;;;;;5141855;27;13821;-74
2022/01/05 05:47:55;;;;;;;;;3.25;2.50;;;;;;;;5162693;27;9455;-75
2022/01/05 05:50:21;;;;;;;;;4.25;3.00;;;;;;;;5143483;27;13616;-74
2022/01/05 05:52:46;;;;;;;;;4.00;3.00;;;;;;;;5141730;27;13481;-73
2022/01/05 05:55:11;;;;;;;;;4.75;3.00;;;;;;;;5144734;27;8799;-74
2022/01/05 05:57:37;;;;;;;;;3.75;3.75;;;;;;;;5175158;27;8823;-74
2022/01/05 06:00:03;;;;;;;;;4.50;3.00;;;;;;;;5164821;27;13560;-74
2022/01/05 06:02:29;;;;;;;;;4.00;4.00;;;;;;;;5183077;27;11703;-74
2022/01/05 06:04:54;;;;;;;;;6.50;4.00;;;;;;;;5182949;27;11431;-73
2022/01/05 06:07:19;;;;;;;;;5.00;3.50;;;;;;;;5183624;27;9544;-74
2022/01/05 06:09:45;;;;;;;;;4.00;4.00;;;;;;;;5164133;27;11523;-74
2022/01/05 06:12:10;;;;;;;;;3.25;3.25;;;;;;;;5163140;27;13370;-75
2022/01/05 06:14:35;;;;;;;;;5.00;4.00;;;;;;;;5182816;27;11459;-74
2022/01/05 06:17:00;;;;;;;;;3.50;3.50;;;;;;;;5182220;27;11298;-74
2022/01/05 06:19:26;;;;;;;;;8.00;6.75;;;;;;;;5183643;27;11298;-75
2022/01/05 06:21:51;;;;;;;;;4.00;3.00;;;;;;;;5183744;27;12799;-75
2022/01/05 06:24:17;;;;;;;;;6.00;4.50;;;;;;;;5164732;27;13123;-75
2022/01/05 06:26:42;;;;;;;;;2.00;1.00;;;;;;;;5183335;27;11327;-75
2022/01/05 06:29:08;;;;;;;;;4.00;4.00;;;;;;;;5182603;27;11281;-75
2022/01/05 06:31:34;;;;;;;;;3.25;3.25;;;;;;;;5182400;27;8821;-74
2022/01/05 06:34:00;;;;;;;;;4.00;4.00;;;;;;;;5182238;27;11460;-73
2022/01/05 06:36:25;;;;;;;;;5.25;4.50;;;;;;;;5182022;27;11653;-73
2022/01/05 06:38:50;;;;;;;;;4.00;3.00;;;;;;;;5162600;27;11797;-73
2022/01/05 06:41:16;;;;;;;;;4.00;3.50;;;;;;;;5163532;27;12047;-73
2022/01/05 06:43:41;;;;;;;;;5.00;5.00;;;;;;;;5182621;27;8799;-73
2022/01/05 06:46:06;;;;;;;;;5.00;5.00;;;;;;;;5182812;27;11282;-73
2022/01/05 06:48:31;;;;;;;;;4.25;4.25;;;;;;;;5182626;27;9601;-74
2022/01/05 06:50:57;;;;;;;;;4.00;4.00;;;;;;;;5182336;27;11327;-74
2022/01/05 06:53:22;;;;;;;;;3.00;3.00;;;;;;;;5182410;27;9044;-74
2022/01/05 06:55:47;;;;;;;;;8.50;4.25;;;;;;;;5182719;27;9045;-75
2022/01/05 06:58:13;;;;;;;;;6.25;5.00;;;;;;;;5182237;27;11846;-74
2022/01/05 07:00:38;;;;;;;;;5.25;4.25;;;;;;;;5163164;27;13472;-74
2022/01/05 07:03:04;;;;;;;;;9.00;6.25;;;;;;;;5181959;27;11346;-74
2022/01/05 07:05:30;;;;;;;;;5.00;5.00;;;;;;;;5182031;27;10343;-74
2022/01/05 07:07:55;;;;;;;;;4.75;4.25;;;;;;;;5181729;27;11536;-73
2022/01/05 07:10:21;;;;;;;;;5.00;4.50;;;;;;;;5182407;27;11907;-74
2022/01/05 07:12:47;;;;;;;;;8.50;8.25;;;;;;;;5182277;27;12703;-74
2022/01/05 07:15:12;;;;;;;;;5.25;5.25;;;;;;;;5162905;27;13508;-73
2022/01/05 07:17:38;;;;;;;;;6.00;5.00;;;;;;;;5180969;27;12290;-74
2022/01/05 07:20:05;;;;;;;;;9.00;5.00;;;;;;;;5162662;27;11629;-81
2022/01/05 07:22:30;;;;;;;;;8.00;6.50;;;;;;;;5182162;27;8807;-78
2022/01/05 07:24:56;;;;;;;;;10.25;5.00;;;;;;;;5181124;27;11809;-78
2022/01/05 07:27:21;;;;;;;;;4.75;4.75;;;;;;;;5180981;27;21518;-76
2022/01/05 07:29:47;;;;;;;;;9.00;6.00;;;;;;;;5181092;27;21362;-77
2022/01/05 07:32:13;;;;;;;;;5.00;5.00;;;;;;;;5182428;27;11343;-81
2022/01/05 07:34:38;;;;;;;;;7.50;7.00;;;;;;;;5183047;27;8861;-76
2022/01/05 07:37:04;;;;;;;;;6.00;5.00;;;;;;;;5183273;27;10293;-77
2022/01/05 07:39:29;;;;;;;;;5.75;5.75;;;;;;;;5182178;27;11685;-77
2022/01/05 07:41:55;;;;;;;;;9.75;8.50;;;;;;;;5181549;27;11826;-75
2022/01/05 07:44:20;;;;;;;;;6.00;5.75;;;;;;;;5182186;27;11290;-80
2022/01/05 07:46:45;;;;;;;;;5.75;5.00;;;;;;;;5192217;27;12673;-85
2022/01/05 07:49:11;;;;;;;;;4.75;4.75;;;;;;;;5203825;27;12398;-78
2022/01/05 07:51:36;;;;;;;;;8.50;6.25;;;;;;;;5201478;27;11478;-76
2022/01/05 07:54:02;;;;;;;;;5.75;5.25;;;;;;;;5173567;27;12137;-79
2022/01/05 07:56:28;;;;;;;;;4.00;4.00;;;;;;;;5163628;27;10618;-79
2022/01/05 07:58:54;;;;;;;;;6.00;4.50;;;;;;;;5181587;27;12571;-80
2022/01/05 08:01:20;;;;;;;;;5.25;5.00;;;;;;;;5181995;27;12164;-81
2022/01/05 08:03:46;;;;;;;;;6.25;5.00;;;;;;;;5163097;27;13510;-82
2022/01/05 08:06:11;;;;;;;;;4.25;4.25;;;;;;;;5184501;27;8816;-79
2022/01/05 08:08:36;;;;;;;;;8.75;6.50;;;;;;;;5181944;27;11352;-79
2022/01/05 08:11:02;;;;;;;;;6.25;5.25;;;;;;;;5181212;27;11311;-79
2022/01/05 08:13:27;;;;;;;;;5.50;5.00;;;;;;;;5180761;27;11534;-81
2022/01/05 08:15:53;;;;;;;;;6.00;6.00;;;;;;;;5161176;27;13316;-81
2022/01/05 08:18:18;;;;;;;;;9.25;6.00;;;;;;;;5181150;27;10269;-83
2022/01/05 08:20:44;;;;;;;;;11.50;7.50;;;;;;;;5181794;27;8838;-79
2022/01/05 08:23:09;;;;;;;;;8.00;7.50;;;;;;;;5181536;27;22928;-87
2022/01/05 08:25:34;;;;;;;;;5.75;5.50;;;;;;;;5162408;27;16635;-79
2022/01/05 08:28:00;;;;;;;;;6.50;6.50;;;;;;;;5182240;27;10260;-77
2022/01/05 08:30:25;;;;;;;;;4.75;4.00;;;;;;;;5182446;27;10503;-78
2022/01/05 08:32:52;;;;;;;;;5.25;5.00;;;;;;;;5182088;27;12706;-83
2022/01/05 08:35:19;;;;;;;;;5.25;5.00;;;;;;;;5164171;27;10120;-84
2022/01/05 08:37:46;;;;;;;;;6.00;6.00;;;;;;;;5184182;27;11462;-80
2022/01/05 08:40:12;;;;;;;;;5.75;4.75;;;;;;;;5184553;27;11445;-84
2022/01/05 08:42:38;;;;;;;;;6.50;4.50;;;;;;;;5182669;27;12613;-79
2022/01/05 08:45:04;;;;;;;;;5.00;5.00;;;;;;;;5162764;27;14171;-77
2022/01/05 08:47:29;;;;;;;;;9.25;6.00;;;;;;;;5178462;27;11459;-85
2022/01/05 19:34:47;;;;;;;;;1.00;0.00;;;;;;;;5159834;27;77016;-78
2022/01/05 19:37:12;;;;;;;;;0.00;0.00;;;;;;;;5138936;27;20614;-75
2022/01/05 19:39:38;;;;;;;;;0.75;0.00;;;;;;;;5149845;27;11442;-82
2022/01/05 19:42:03;;;;;;;;;0.00;0.00;;;;;;;;5148181;27;9479;-85
2022/01/05 19:44:29;;;;;;;;;0.00;0.00;;;;;;;;5148470;27;8816;-85
2022/01/05 19:46:54;;;;;;;;;0.00;0.00;;;;;;;;5148802;27;8769;-75
2022/01/05 19:49:19;;;;;;;;;0.00;0.00;;;;;;;;5150883;27;8896;-80
2022/01/05 19:51:49;;;;;;;;;1.00;0.00;;;;;;;;5147043;27;8794;-84
2022/01/05 19:56:50;;;;;;;;;0.00;0.00;;;;;;;;5147394;27;11340;-81
2022/01/05 19:59:15;;;;;;;;;0.00;0.00;;;;;;;;5150239;27;11647;-84
2022/01/05 20:01:41;;;;;;;;;0.00;0.00;;;;;;;;5149995;27;11388;-83
2022/01/05 20:04:07;;;;;;;;;0.00;0.00;;;;;;;;5149257;27;8939;-85
2022/01/05 20:06:32;;;;;;;;;0.00;0.00;;;;;;;;5148823;27;8896;-85
2022/01/05 20:08:58;;;;;;;;;0.00;0.00;;;;;;;;5151701;27;11442;-84
2022/01/05 20:11:23;;;;;;;;;0.00;0.00;;;;;;;;5147066;27;8815;-78
2022/01/05 20:13:48;;;;;;;;;0.00;0.00;;;;;;;;5147989;27;8985;-83
2022/01/05 20:16:15;;;;;;;;;0.00;0.00;;;;;;;;5149860;27;8802;-82
2022/01/05 20:18:41;;;;;;;;;0.00;0.00;;;;;;;;5145820;27;8796;-81
2022/01/05 20:21:06;;;;;;;;;9.25;7.75;;;;;;;;5145634;27;11445;-87
2022/01/05 20:23:31;;;;;;;;;2.00;1.00;;;;;;;;5153693;27;11489;-74
2022/01/05 20:25:58;;;;;;;;;0.00;0.00;;;;;;;;5147144;27;11291;-76
2022/01/05 20:28:23;;;;;;;;;1.00;1.00;;;;;;;;5144656;27;8777;-77
2022/01/05 20:30:51;;;;;;;;;0.00;0.00;;;;;;;;5146124;27;11474;-74
2022/01/05 20:33:16;;;;;;;;;0.00;0.00;;;;;;;;5144313;27;8814;-75
2022/01/05 20:35:41;;;;;;;;;0.00;0.00;;;;;;;;5142388;27;11438;-74
2022/01/05 20:38:07;;;;;;;;;0.00;0.00;;;;;;;;5145385;27;8818;-74
2022/01/05 20:40:33;;;;;;;;;0.00;0.00;;;;;;;;5146042;27;8802;-74
2022/01/05 20:42:58;;;;;;;;;0.00;0.00;;;;;;;;5147034;27;8765;-75
2022/01/05 20:45:24;;;;;;;;;0.75;0.00;;;;;;;;5141303;27;11407;-78
2022/01/05 20:47:50;;;;;;;;;0.00;0.00;;;;;;;;5132467;27;8791;-73
2022/01/05 20:50:16;;;;;;;;;1.00;1.00;;;;;;;;5132408;27;11529;-75
2022/01/05 20:52:41;;;;;;;;;2.00;1.00;;;;;;;;5130324;27;11453;-76
2022/01/05 20:55:09;;;;;;;;;1.00;1.00;;;;;;;;5129038;27;9393;-77
2022/01/05 20:57:38;;;;;;;;;2.00;0.00;;;;;;;;5130029;27;9332;-78
2022/01/05 21:00:05;;;;;;;;;1.00;1.00;;;;;;;;5131283;27;11438;-78
2022/01/05 21:02:30;;;;;;;;;1.00;1.00;;;;;;;;5131646;27;11414;-76
2022/01/05 21:04:57;;;;;;;;;1.00;1.00;;;;;;;;5132338;27;11539;-78
2022/01/05 21:07:23;;;;;;;;;6.25;3.75;;;;;;;;5136393;27;8870;-74
2022/01/05 21:09:48;;;;;;;;;4.75;4.50;;;;;;;;5141889;27;11604;-76
2022/01/05 21:12:14;;;;;;;;;1.50;1.50;;;;;;;;5141828;27;11505;-76
2022/01/05 21:14:39;;;;;;;;;2.50;1.75;;;;;;;;5139328;27;10660;-76
2022/01/05 21:17:05;;;;;;;;;3.75;2.75;;;;;;;;5130645;27;12560;-76
2022/01/05 21:19:30;;;;;;;;;1.00;1.00;;;;;;;;5131384;27;10278;-76
2022/01/05 21:21:55;;;;;;;;;1.00;0.00;;;;;;;;5132208;27;11546;-76
2022/01/05 21:24:21;;;;;;;;;1.50;0.00;;;;;;;;5135645;27;8823;-75
2022/01/05 21:26:46;;;;;;;;;2.00;1.00;;;;;;;;5134571;27;8850;-74
2022/01/05 21:29:12;;;;;;;;;1.00;1.00;;;;;;;;5130997;27;10410;-75
2022/01/05 21:31:37;;;;;;;;;1.00;1.00;;;;;;;;5128763;27;8974;-75
2022/01/05 21:34:03;;;;;;;;;1.00;1.00;;;;;;;;5131026;27;10977;-75
2022/01/05 21:36:28;;;;;;;;;1.00;1.00;;;;;;;;5129061;27;8999;-75
2022/01/05 21:38:53;;;;;;;;;1.00;1.00;;;;;;;;5132016;27;8866;-75
2022/01/05 21:41:19;;;;;;;;;0.00;0.00;;;;;;;;5130791;27;8822;-75
2022/01/05 21:43:49;;;;;;;;;2.00;0.75;;;;;;;;5129652;27;8907;-76
2022/01/05 21:46:14;;;;;;;;;0.25;0.25;;;;;;;;5129356;27;11563;-75
2022/01/05 21:48:40;;;;;;;;;1.00;1.00;;;;;;;;5132452;27;11701;-75
2022/01/05 21:51:05;;;;;;;;;0.00;0.00;;;;;;;;5130844;27;11369;-76
2022/01/05 21:53:30;;;;;;;;;0.75;0.00;;;;;;;;5129877;27;8915;-75
2022/01/05 21:55:55;;;;;;;;;0.25;0.25;;;;;;;;5135857;27;8809;-75
2022/01/05 21:58:21;;;;;;;;;1.50;0.00;;;;;;;;5130534;27;8827;-75
2022/01/05 22:00:47;;;;;;;;;0.00;0.00;;;;;;;;5130821;27;12568;-75
2022/01/05 22:03:14;;;;;;;;;1.00;0.00;;;;;;;;5129075;27;9176;-74
2022/01/05 22:05:39;;;;;;;;;0.00;0.00;;;;;;;;5131722;27;11519;-74
2022/01/05 22:08:05;;;;;;;;;2.00;0.00;;;;;;;;5127816;27;11546;-74
2022/01/05 22:10:31;;;;;;;;;2.00;2.00;;;;;;;;5131504;27;8929;-74
2022/01/05 22:12:56;;;;;;;;;0.75;0.00;;;;;;;;5129454;27;8794;-74
2022/01/05 22:15:22;;;;;;;;;1.00;1.00;;;;;;;;5138396;27;11459;-75
2022/01/05 22:17:47;;;;;;;;;1.00;1.00;;;;;;;;5130214;27;10462;-75
2022/01/05 22:20:15;;;;;;;;;2.00;2.00;;;;;;;;5127754;27;8862;-74
2022/01/05 22:22:40;;;;;;;;;1.00;1.00;;;;;;;;5131324;27;8804;-74
2022/01/05 22:25:06;;;;;;;;;1.00;0.00;;;;;;;;5129834;27;11469;-75
2022/01/05 22:27:32;;;;;;;;;0.00;0.00;;;;;;;;5128701;27;8799;-75
2022/01/05 22:29:57;;;;;;;;;1.00;0.00;;;;;;;;5133737;27;11435;-75
2022/01/05 22:32:22;;;;;;;;;0.00;0.00;;;;;;;;5128845;27;8794;-75
2022/01/05 22:34:47;;;;;;;;;1.00;0.00;;;;;;;;5129169;27;8816;-75
2022/01/05 22:37:13;;;;;;;;;0.00;0.00;;;;;;;;5127985;27;8838;-75
2022/01/05 22:39:38;;;;;;;;;0.50;0.00;;;;;;;;5128114;27;8827;-75
2022/01/05 22:42:04;;;;;;;;;0.00;0.00;;;;;;;;5129279;27;8815;-75
2022/01/05 22:44:32;;;;;;;;;0.00;0.00;;;;;;;;5130815;27;9508;-75
2022/01/05 22:46:57;;;;;;;;;0.00;0.00;;;;;;;;5131420;27;8786;-75
2022/01/05 22:49:23;;;;;;;;;0.00;0.00;;;;;;;;5128094;27;11463;-75
2022/01/05 22:51:49;;;;;;;;;0.00;0.00;;;;;;;;5139267;27;8978;-76
2022/01/05 22:54:14;;;;;;;;;0.00;0.00;;;;;;;;5139905;27;8808;-75
2022/01/05 22:56:40;;;;;;;;;0.00;0.00;;;;;;;;5139716;27;8854;-76
2022/01/05 22:59:05;;;;;;;;;1.00;0.00;;;;;;;;5141433;27;8776;-76
2022/01/05 23:01:31;;;;;;;;;0.00;0.00;;;;;;;;5141367;27;8804;-76
2022/01/05 23:03:56;;;;;;;;;0.00;0.00;;;;;;;;5139058;27;8943;-75
2022/01/05 23:06:22;;;;;;;;;0.25;0.00;;;;;;;;5141070;27;8803;-76
2022/01/05 23:08:47;;;;;;;;;0.00;0.00;;;;;;;;5140190;27;8820;-76
2022/01/05 23:11:13;;;;;;;;;0.00;0.00;;;;;;;;5140333;27;8807;-75
2022/01/05 23:13:38;;;;;;;;;0.00;0.00;;;;;;;;5140577;27;8811;-76
2022/01/05 23:16:03;;;;;;;;;0.00;0.00;;;;;;;;5140161;27;8796;-75
2022/01/05 23:18:28;;;;;;;;;1.00;0.00;;;;;;;;5140522;27;8776;-75
